M I D A S
Marine Information and Data Acquisition System
Tripno 850 of the Zeeleeuw from 2005-02-23 07:26:07 to 2005-02-23 14:39:23
Back to CruiseResearch ActivitiesStationsMapUnderway DataData graphs

EquipmentUnitsComment
TimeDGPSUTC
LatitudeDGPSDM.mWGS84
LongitudeDGPSDM.mWGS84
HeadingGyrodeg 
SOGDGPSknotsSpeed over ground
COGDGPSdegCourse over ground
DepthEcho soundermeters200 kHz
Missing or incorrect values are displayed as -999
Navigation data collected by the RV Zeeleeuw from 2005-02-23 07:27:59 to 2005-02-23 14:45:50
                                                                                    Next 1000 lines
Time Latitude Longitude Heading SOG COG Depth
2005-02-23 07:28:10 51°13.595 2°56.096 116.8 0.4 298 6.2
2005-02-23 07:28:15 51°13.596 2°56.092 117.1 0.4 298 6.1
2005-02-23 07:28:19 51°13.597 2°56.088 117.2 2.4 295 6.1
2005-02-23 07:28:25 51°13.599 2°56.081 117.2 2.7 296 -999
2005-02-23 07:28:30 51°13.602 2°56.075 116.9 2.7 296 -999
2005-02-23 07:28:35 51°13.604 2°56.067 116.8 3.4 295 -999
2005-02-23 07:28:40 51°13.606 2°56.06 116.8 3.7 294 -999
2005-02-23 07:28:45 51°13.608 2°56.052 116.9 3.8 295 -999
2005-02-23 07:28:49 51°13.61 2°56.046 117.6 3.7 296 -999
2005-02-23 07:28:55 51°13.613 2°56.038 118.4 3.7 296 -999
2005-02-23 07:28:58 51°13.614 2°56.034 118.8 3 298 -999
2005-02-23 07:29:05 51°13.616 2°56.028 119.4 3 298 -999
2005-02-23 07:29:10 51°13.617 2°56.026 119.9 3 298 -999
2005-02-23 07:29:15 51°13.617 2°56.025 120.2 0.8 298 -999
2005-02-23 07:29:19 51°13.617 2°56.026 120.6 0.1 298 9
2005-02-23 07:29:24 51°13.616 2°56.027 122.4 0.1 298 9.1
2005-02-23 07:29:29 51°13.615 2°56.03 124.7 0.1 298 9.1
2005-02-23 07:29:33 51°13.614 2°56.033 128.5 1.7 131 9
2005-02-23 07:29:38 51°13.612 2°56.036 132.7 1.8 132 5.1
2005-02-23 07:29:45 51°13.609 2°56.041 135.4 2.3 131 4.9
2005-02-23 07:29:49 51°13.607 2°56.045 137.5 2.4 134 9
2005-02-23 07:29:54 51°13.604 2°56.049 139.3 2.6 133 9.1
2005-02-23 07:29:59 51°13.601 2°56.053 140 2.6 133 -999
2005-02-23 07:30:02 51°13.599 2°56.057 140.5 3.2 135 8.8
2005-02-23 07:30:09 51°13.594 2°56.064 140.4 3.3 135 8.8
2005-02-23 07:30:14 51°13.591 2°56.07 140.3 3.6 137 9.1
2005-02-23 07:30:19 51°13.587 2°56.075 140.2 3.6 137 9.1
2005-02-23 07:30:24 51°13.583 2°56.081 140.2 3.9 137 9.2
2005-02-23 07:30:30 51°13.578 2°56.088 140 3.9 137 9
2005-02-23 07:30:34 51°13.574 2°56.094 139.5 4.2 137 9.1
2005-02-23 07:30:39 51°13.57 2°56.1 139.2 4.2 137 9.1
2005-02-23 07:30:42 51°13.567 2°56.105 138.7 4.4 138 9.3
2005-02-23 07:30:49 51°13.561 2°56.114 138.2 4.4 138 9.2
2005-02-23 07:30:54 51°13.557 2°56.12 137.4 4.3 137 9.2
2005-02-23 07:30:59 51°13.553 2°56.126 136.3 4.3 137 9.4
2005-02-23 07:31:05 51°13.549 2°56.133 135.1 4.1 135 9
2005-02-23 07:31:09 51°13.546 2°56.139 133.6 3.9 133 9.4
2005-02-23 07:31:14 51°13.542 2°56.146 132 3.9 133 9.4
2005-02-23 07:31:19 51°13.539 2°56.152 130.1 3.8 129 9.5
2005-02-23 07:31:24 51°13.536 2°56.159 128.8 3.8 129 9.4
2005-02-23 07:31:29 51°13.534 2°56.165 126.9 3.8 129 9.3
2005-02-23 07:31:34 51°13.531 2°56.172 124.5 3.5 123 9.5
2005-02-23 07:31:40 51°13.53 2°56.18 120.5 3.4 114 9.4
2005-02-23 07:31:44 51°13.528 2°56.186 115.3 3.4 108 9.3
2005-02-23 07:31:49 51°13.528 2°56.193 109.4 3.3 102 9
2005-02-23 07:31:53 51°13.528 2°56.199 101.6 3.4 92 9.3
2005-02-23 07:31:59 51°13.528 2°56.208 94.6 3.4 92 9.5
2005-02-23 07:32:04 51°13.53 2°56.217 86.6 3.6 76 9.5
2005-02-23 07:32:09 51°13.532 2°56.223 80 3.5 69 9.3
2005-02-23 07:32:14 51°13.534 2°56.229 73.5 3.3 63 9.4
2005-02-23 07:32:19 51°13.536 2°56.234 69.7 2.9 61 8
2005-02-23 07:32:24 51°13.538 2°56.237 65.6 2.3 54 7.8
2005-02-23 07:32:29 51°13.539 2°56.239 60.3 1.8 47 5.7
2005-02-23 07:32:34 51°13.541 2°56.241 55.1 1.2 36 7.9
2005-02-23 07:32:39 51°13.542 2°56.241 50.2 1.1 33 7.8
2005-02-23 07:32:44 51°13.542 2°56.241 46.1 1.1 33 7.7
2005-02-23 07:32:49 51°13.542 2°56.241 42.7 0.4 1 7.9
2005-02-23 07:32:54 51°13.542 2°56.24 39.8 0.3 280 7.8
2005-02-23 07:33:00 51°13.541 2°56.238 37 0.3 280 7.8
2005-02-23 07:33:03 51°13.541 2°56.237 34.5 0.9 226 7.8
2005-02-23 07:33:09 51°13.539 2°56.235 32.4 1.1 221 7.8
2005-02-23 07:33:14 51°13.538 2°56.234 30.4 1.4 217 5
2005-02-23 07:33:20 51°13.535 2°56.231 29.3 1.6 214 -999
2005-02-23 07:33:24 51°13.534 2°56.229 28.6 1.7 214 5.1
2005-02-23 07:33:30 51°13.532 2°56.227 28.3 1.6 214 -999
2005-02-23 07:33:35 51°13.531 2°56.225 28.9 1.5 220 5.7
2005-02-23 07:33:39 51°13.53 2°56.224 29.7 0.9 229 -999
2005-02-23 07:33:45 51°13.531 2°56.223 28.9 0.5 263 -999
2005-02-23 07:33:50 51°13.532 2°56.223 26 0.6 323 9.6
2005-02-23 07:33:53 51°13.534 2°56.222 22.6 1.2 355 9.3
2005-02-23 07:33:58 51°13.536 2°56.222 16.8 1.7 357 9.4
2005-02-23 07:34:05 51°13.54 2°56.221 11.3 1.7 357 -999
2005-02-23 07:34:09 51°13.542 2°56.221 4.3 2 347 5.5
2005-02-23 07:34:14 51°13.544 2°56.22 0.5 1.3 352 5.1
2005-02-23 07:34:19 51°13.545 2°56.219 355.6 1 336 7.9
2005-02-23 07:34:25 51°13.545 2°56.219 351.3 0.8 330 7.8
2005-02-23 07:34:29 51°13.544 2°56.218 348 0.3 310 7.8
2005-02-23 07:34:33 51°13.543 2°56.219 345.3 0.4 183 7.9
2005-02-23 07:34:39 51°13.542 2°56.219 342.5 0.6 173 8
2005-02-23 07:34:44 51°13.54 2°56.22 340.7 0.6 173 7.9
2005-02-23 07:34:50 51°13.537 2°56.222 338.7 1.6 162 -999
2005-02-23 07:34:55 51°13.534 2°56.224 336.4 1.9 160 -999
2005-02-23 07:35:00 51°13.531 2°56.227 334.3 2.3 156 -999
2005-02-23 07:35:05 51°13.529 2°56.229 333.2 2.1 153 -999
2005-02-23 07:35:09 51°13.527 2°56.23 332.4 1.5 157 -999
2005-02-23 07:35:15 51°13.526 2°56.23 331.7 1.3 156 -999
2005-02-23 07:35:19 51°13.525 2°56.23 329 0.5 171 -999
2005-02-23 07:35:25 51°13.526 2°56.229 325.5 0.2 231 5.1
2005-02-23 07:35:29 51°13.526 2°56.228 321.5 0.6 302 9.4
2005-02-23 07:35:34 51°13.527 2°56.226 317.9 0.6 302 9.5
2005-02-23 07:35:38 51°13.528 2°56.223 314.2 1 302 9.3
2005-02-23 07:35:44 51°13.53 2°56.218 311.2 1 302 9.5
2005-02-23 07:35:49 51°13.533 2°56.212 305.9 1 302 9.6
2005-02-23 07:35:54 51°13.536 2°56.204 302.8 3.8 302 9.4
2005-02-23 07:35:58 51°13.538 2°56.197 301.2 4.3 299 9.2
2005-02-23 07:36:04 51°13.542 2°56.185 301.2 5 299 9.3
2005-02-23 07:36:09 51°13.546 2°56.174 301.3 5.4 297 9.5
2005-02-23 07:36:14 51°13.549 2°56.163 301.7 5.9 297 9.3
2005-02-23 07:36:19 51°13.553 2°56.152 302.5 5.9 297 9.4
2005-02-23 07:36:23 51°13.556 2°56.143 303.5 5.9 298 9.1
2005-02-23 07:36:30 51°13.562 2°56.127 304.3 5.9 298 8.8
2005-02-23 07:36:35 51°13.566 2°56.116 304.8 5.9 301 9.1
2005-02-23 07:36:39 51°13.57 2°56.106 305.5 5.9 301 9.2
2005-02-23 07:36:45 51°13.575 2°56.094 306.2 5.9 301 9.1
2005-02-23 07:36:49 51°13.579 2°56.084 307 5.9 303 9
2005-02-23 07:36:54 51°13.583 2°56.073 307.1 6.1 303 9.2
2005-02-23 07:36:59 51°13.588 2°56.062 307.1 6.1 303 9.1
2005-02-23 07:37:04 51°13.593 2°56.049 307.1 6.3 303 8.4
2005-02-23 07:37:09 51°13.598 2°56.037 307 6.4 303 8.7
2005-02-23 07:37:14 51°13.603 2°56.025 307 6.4 303 9.1
2005-02-23 07:37:19 51°13.608 2°56.013 307.6 6.4 303 9
2005-02-23 07:37:25 51°13.614 2°56 308.1 6.7 304 9.1
2005-02-23 07:37:29 51°13.619 2°55.989 308.4 6.7 305 9.1
2005-02-23 07:37:33 51°13.623 2°55.979 308.5 6.8 305 8.9
2005-02-23 07:37:38 51°13.629 2°55.966 308.9 6.8 305 9
2005-02-23 07:37:45 51°13.636 2°55.95 309 6.9 305 9
2005-02-23 07:37:49 51°13.641 2°55.939 309 6.9 305 9
2005-02-23 07:37:53 51°13.645 2°55.929 309.3 6.8 305 9.1
2005-02-23 07:37:59 51°13.651 2°55.915 309.6 6.7 305 9.1
2005-02-23 07:38:04 51°13.656 2°55.905 309.6 6.3 306 8.9
2005-02-23 07:38:09 51°13.661 2°55.895 309.6 6.2 306 8.7
2005-02-23 07:38:14 51°13.666 2°55.883 309.7 6 306 8.6
2005-02-23 07:38:19 51°13.67 2°55.874 309.2 5.9 306 8.3
2005-02-23 07:38:23 51°13.674 2°55.864 308.8 5.7 305 8.3
2005-02-23 07:38:29 51°13.68 2°55.852 308.6 5.6 306 8.2
2005-02-23 07:38:34 51°13.684 2°55.842 308.5 5.6 305 8.6
2005-02-23 07:38:39 51°13.688 2°55.833 308.5 5.6 305 8.7
2005-02-23 07:38:44 51°13.694 2°55.822 308.7 5.6 305 8.8
2005-02-23 07:38:49 51°13.698 2°55.812 309.1 5.9 306 9.6
2005-02-23 07:38:53 51°13.703 2°55.802 309.9 6.2 306 10.7
2005-02-23 07:38:59 51°13.708 2°55.789 310.5 6.2 306 11.1
2005-02-23 07:39:05 51°13.715 2°55.774 310.6 6.7 306 11.3
2005-02-23 07:39:09 51°13.721 2°55.763 311 6.7 306 11.2
2005-02-23 07:39:14 51°13.726 2°55.751 312 7.3 308 10.8
2005-02-23 07:39:19 51°13.733 2°55.739 313.5 7.5 309 9.8
2005-02-23 07:39:24 51°13.741 2°55.725 315.1 7.5 309 9.2
2005-02-23 07:39:29 51°13.749 2°55.712 316.9 7.8 313 8.8
2005-02-23 07:39:34 51°13.757 2°55.7 319.1 8 315 8.9
2005-02-23 07:39:39 51°13.765 2°55.689 321.5 8 315 8.9
2005-02-23 07:39:44 51°13.774 2°55.678 324.4 8.3 321 8.9
2005-02-23 07:39:49 51°13.785 2°55.667 328.2 8.4 325 8.8
2005-02-23 07:39:54 51°13.796 2°55.657 330.9 8.6 329 9.3
2005-02-23 07:39:59 51°13.805 2°55.649 333.8 8.6 329 9.3
2005-02-23 07:40:04 51°13.818 2°55.639 335.4 8.6 329 9.5
2005-02-23 07:40:09 51°13.827 2°55.63 336.1 8.6 329 9.5
2005-02-23 07:40:15 51°13.841 2°55.62 336.6 9.1 333 9.5
2005-02-23 07:40:19 51°13.852 2°55.611 337.2 9.1 333 9.2
2005-02-23 07:40:24 51°13.863 2°55.602 337.9 9.3 334 8.9
2005-02-23 07:40:29 51°13.874 2°55.594 338.2 9.3 333 9.2
2005-02-23 07:40:34 51°13.887 2°55.584 338.1 9.4 334 9
2005-02-23 07:40:39 51°13.897 2°55.576 338.7 9.5 335 8.8
2005-02-23 07:40:44 51°13.91 2°55.566 339.7 9.5 335 9
2005-02-23 07:40:49 51°13.921 2°55.558 339.8 9.6 335 9
2005-02-23 07:40:54 51°13.935 2°55.549 339.8 9.6 335 9
2005-02-23 07:40:59 51°13.945 2°55.541 340.7 9.6 336 8.9
2005-02-23 07:41:02 51°13.954 2°55.536 341.1 9.6 337 9
2005-02-23 07:41:09 51°13.971 2°55.524 341.5 9.6 337 8.9
2005-02-23 07:41:13 51°13.981 2°55.518 342.5 9.6 339 9
2005-02-23 07:41:19 51°13.995 2°55.509 343.2 9.6 339 9.1
2005-02-23 07:41:24 51°14.008 2°55.5 343.2 9.6 338 8.9
2005-02-23 07:41:29 51°14.019 2°55.493 342.7 9.6 337 8.8
2005-02-23 07:41:34 51°14.033 2°55.485 342.5 9.6 339 8.6
2005-02-23 07:41:38 51°14.043 2°55.478 343 9.6 338 8.5
2005-02-23 07:41:44 51°14.058 2°55.469 342.9 9.6 338 8.4
2005-02-23 07:41:49 51°14.07 2°55.46 342.4 9.6 338 8.3
2005-02-23 07:41:54 51°14.081 2°55.453 342.4 9.6 337 8.4
2005-02-23 07:41:59 51°14.093 2°55.444 342.5 9.6 337 8.4
2005-02-23 07:42:04 51°14.106 2°55.435 341.8 9.7 336 8.5
2005-02-23 07:42:09 51°14.119 2°55.425 340.9 9.7 336 8.5
2005-02-23 07:42:13 51°14.128 2°55.418 340.1 9.6 335 8.6
2005-02-23 07:42:18 51°14.14 2°55.408 339 9.6 334 8.8
2005-02-23 07:42:24 51°14.154 2°55.396 337.9 9.7 333 8.8
2005-02-23 07:42:29 51°14.166 2°55.386 336.7 9.6 331 9.3
2005-02-23 07:42:33 51°14.175 2°55.377 335.3 9.6 330 9.1
2005-02-23 07:42:40 51°14.19 2°55.36 333.1 9.6 330 -999
2005-02-23 07:42:45 51°14.2 2°55.349 330.9 9.6 330 9.2
2005-02-23 07:42:50 51°14.21 2°55.336 329.3 9.6 330 9.2
2005-02-23 07:42:54 51°14.22 2°55.324 327.8 9.5 321 9.2
2005-02-23 07:42:58 51°14.227 2°55.313 325.4 9.5 320 9.2
2005-02-23 07:43:04 51°14.239 2°55.295 323.3 9.7 317 8.8
2005-02-23 07:43:09 51°14.249 2°55.28 321.3 9.8 316 8.9
2005-02-23 07:43:14 51°14.257 2°55.265 319.3 9.9 314 8.8
2005-02-23 07:43:19 51°14.267 2°55.249 317.9 10.1 313 8.9
2005-02-23 07:43:24 51°14.277 2°55.23 316.4 10.2 310 8.8
2005-02-23 07:43:29 51°14.286 2°55.212 315.3 10.3 311 8.7
2005-02-23 07:43:34 51°14.295 2°55.194 314.6 10.3 310 8.7
2005-02-23 07:43:39 51°14.304 2°55.178 314.2 10.3 310 8.8
2005-02-23 07:43:44 51°14.313 2°55.158 313.4 10.4 308 8.8
2005-02-23 07:43:49 51°14.322 2°55.14 311.9 10.5 307 8.8
2005-02-23 07:43:53 51°14.328 2°55.125 311.1 10.5 307 8.8
2005-02-23 07:43:59 51°14.338 2°55.102 310.5 10.7 306 8.9
2005-02-23 07:44:05 51°14.348 2°55.079 309.6 10.7 306 9
2005-02-23 07:44:09 51°14.356 2°55.061 309.4 11 305 8.9
2005-02-23 07:44:14 51°14.365 2°55.04 309.6 11.4 305 8.9
2005-02-23 07:44:19 51°14.373 2°55.021 309.6 11.3 305 8.9
2005-02-23 07:44:24 51°14.382 2°54.997 309.1 11.6 302 8.9
2005-02-23 07:44:29 51°14.391 2°54.974 307.8 11.6 302 8.8
2005-02-23 07:44:33 51°14.397 2°54.956 307 11.7 299 8.8
2005-02-23 07:44:39 51°14.405 2°54.93 305 11.8 298 8.9
2005-02-23 07:44:44 51°14.414 2°54.905 303.4 11.9 297 9
2005-02-23 07:44:49 51°14.422 2°54.88 303.3 11.9 297 9.1
2005-02-23 07:44:54 51°14.43 2°54.86 304.8 12.1 298 9
2005-02-23 07:44:59 51°14.439 2°54.835 308.9 12.3 302 9
2005-02-23 07:45:05 51°14.449 2°54.807 309.4 12.3 302 9.1
2005-02-23 07:45:09 51°14.456 2°54.782 306.3 12.3 302 9.1
2005-02-23 07:45:15 51°14.464 2°54.753 302.8 13.2 293 9
2005-02-23 07:45:19 51°14.471 2°54.728 301.7 13.2 295 9
2005-02-23 07:45:24 51°14.477 2°54.704 301.3 13.4 294 8.8
2005-02-23 07:45:29 51°14.486 2°54.674 301.1 13.5 293 9
2005-02-23 07:45:33 51°14.492 2°54.651 301.6 13.7 294 8.9
2005-02-23 07:45:38 51°14.5 2°54.623 301.3 13.7 294 8.9
2005-02-23 07:45:43 51°14.508 2°54.595 301.8 13.9 294 8.9
2005-02-23 07:45:49 51°14.517 2°54.562 302 13.9 294 8.9
2005-02-23 07:45:54 51°14.525 2°54.536 302.4 13.9 294 8.9
2005-02-23 07:45:59 51°14.532 2°54.508 301.9 13.9 294 9
2005-02-23 07:46:04 51°14.54 2°54.476 301.3 14.1 292 9
2005-02-23 07:46:08 51°14.546 2°54.453 300 14.2 291 9
2005-02-23 07:46:14 51°14.554 2°54.418 299.1 14.2 291 9
2005-02-23 07:46:19 51°14.561 2°54.388 298.7 14.1 291 8.9
2005-02-23 07:46:24 51°14.569 2°54.361 299 14.2 291 9
2005-02-23 07:46:29 51°14.578 2°54.333 302.5 14 296 8.9
2005-02-23 07:46:35 51°14.589 2°54.305 305.5 14 300 9
2005-02-23 07:46:39 51°14.598 2°54.284 308.5 13.9 302 8.9
2005-02-23 07:46:44 51°14.61 2°54.256 310.9 13.9 304 8.8
2005-02-23 07:46:49 51°14.621 2°54.231 312.8 13.9 304 8.9
2005-02-23 07:46:54 51°14.631 2°54.209 314.1 13.9 306 9
2005-02-23 07:46:58 51°14.642 2°54.188 314.7 13.7 307 8.9
2005-02-23 07:47:04 51°14.656 2°54.159 315 13.7 308 8.9
2005-02-23 07:47:09 51°14.669 2°54.136 317.1 13.7 308 9
2005-02-23 07:47:14 51°14.68 2°54.116 318.5 13.8 311 8.9
2005-02-23 07:47:19 51°14.693 2°54.093 320 13.8 311 9.1
2005-02-23 07:47:24 51°14.707 2°54.069 320.6 13.7 312 8.9
2005-02-23 07:47:29 51°14.72 2°54.048 321 13.7 312 9.2
2005-02-23 07:47:34 51°14.733 2°54.026 321.8 13.7 312 8.8
2005-02-23 07:47:39 51°14.745 2°54.006 322.1 13.5 314 8.9
2005-02-23 07:47:43 51°14.755 2°53.989 322.2 13.6 313 8.9
2005-02-23 07:47:49 51°14.772 2°53.961 321.8 13.6 313 8.8
2005-02-23 07:47:54 51°14.784 2°53.939 321.3 13.5 312 8.5
2005-02-23 07:47:59 51°14.797 2°53.917 321 13.5 313 8.5
2005-02-23 07:48:04 51°14.809 2°53.896 321 13.5 313 8.3
2005-02-23 07:48:09 51°14.822 2°53.874 321.2 13.4 313 8.4
2005-02-23 07:48:13 51°14.831 2°53.857 320.8 13.4 312 8.2
2005-02-23 07:48:19 51°14.845 2°53.832 320.9 13.4 312 8.3
2005-02-23 07:48:24 51°14.858 2°53.808 320.3 13.2 310 8.4
2005-02-23 07:48:30 51°14.871 2°53.783 320 13.2 310 8.5
2005-02-23 07:48:34 51°14.883 2°53.763 320.9 13.5 311 8.4
2005-02-23 07:48:39 51°14.894 2°53.743 321.2 13.4 311 8.6
2005-02-23 07:48:44 51°14.906 2°53.721 321.5 13.4 311 8.4
2005-02-23 07:48:49 51°14.92 2°53.697 321.7 13.3 313 8.4
2005-02-23 07:48:54 51°14.933 2°53.675 322.3 13.3 313 8.4
2005-02-23 07:48:58 51°14.943 2°53.659 323.3 13.4 314 8.6
2005-02-23 07:49:04 51°14.959 2°53.635 323.9 13.3 316 8.5
2005-02-23 07:49:10 51°14.975 2°53.615 326 13.3 316 8.9
2005-02-23 07:49:13 51°14.985 2°53.602 328.4 13.3 321 8.8
2005-02-23 07:49:19 51°15 2°53.583 330.8 13.3 321 8.5
2005-02-23 07:49:23 51°15.014 2°53.567 331.6 13.2 323 8.6
2005-02-23 07:49:29 51°15.032 2°53.546 332.8 13.4 324 8.6
2005-02-23 07:49:34 51°15.046 2°53.528 333.8 13 324 8.5
2005-02-23 07:49:39 51°15.061 2°53.511 333.8 13 324 8.6
2005-02-23 07:49:44 51°15.075 2°53.493 333.6 13 321 8.7
2005-02-23 07:49:49 51°15.089 2°53.475 332.9 13 321 8.7
2005-02-23 07:49:54 51°15.103 2°53.457 332.1 13 321 8.7
2005-02-23 07:49:59 51°15.118 2°53.438 331.8 13.2 322 8.5
2005-02-23 07:50:04 51°15.132 2°53.421 331.7 13.2 322 8.6
2005-02-23 07:50:09 51°15.147 2°53.405 332.1 13.2 322 8.7
2005-02-23 07:50:13 51°15.159 2°53.393 336 13 328 8.9
2005-02-23 07:50:19 51°15.177 2°53.379 339.6 13 328 8.9
2005-02-23 07:50:24 51°15.194 2°53.364 341.8 13 333 9
2005-02-23 07:50:29 51°15.211 2°53.352 344.2 13 333 9
2005-02-23 07:50:33 51°15.224 2°53.342 346.3 13.1 335 9
2005-02-23 07:50:38 51°15.24 2°53.33 346.8 13.1 334 8.8
2005-02-23 07:50:44 51°15.259 2°53.316 346.9 12.9 335 8.9
2005-02-23 07:50:49 51°15.276 2°53.304 347 12.9 335 9.1
2005-02-23 07:50:54 51°15.292 2°53.293 346.9 13 336 9.1
2005-02-23 07:50:59 51°15.309 2°53.282 347.3 13 336 9.3
2005-02-23 07:51:04 51°15.326 2°53.271 347.6 13 337 9.3
2005-02-23 07:51:09 51°15.342 2°53.261 347.7 12.9 339 9.6
2005-02-23 07:51:14 51°15.359 2°53.251 348.8 13 339 9.4
2005-02-23 07:51:18 51°15.372 2°53.243 349.5 12.9 339 9.5
2005-02-23 07:51:24 51°15.393 2°53.231 349.8 13.1 340 9.4
2005-02-23 07:51:29 51°15.41 2°53.221 350.5 13.1 340 9.6
2005-02-23 07:51:34 51°15.426 2°53.212 350.6 13.1 340 9.6
2005-02-23 07:51:39 51°15.443 2°53.202 350.5 13 340 9.7
2005-02-23 07:51:45 51°15.463 2°53.19 350.2 13 340 9.8
2005-02-23 07:51:49 51°15.478 2°53.181 350.1 13.1 340 9.8
2005-02-23 07:51:54 51°15.495 2°53.171 349.9 13.1 339 9.8
2005-02-23 07:51:59 51°15.512 2°53.16 349.8 13 339 9.9
2005-02-23 07:52:04 51°15.528 2°53.149 349.3 13.2 339 10
2005-02-23 07:52:10 51°15.547 2°53.136 349.1 13.2 339 9.8
2005-02-23 07:52:15 51°15.563 2°53.125 348.8 13.2 339 10
2005-02-23 07:52:20 51°15.58 2°53.115 348.8 13.1 338 10.1
2005-02-23 07:52:24 51°15.594 2°53.106 348.8 13 338 10.1
2005-02-23 07:52:29 51°15.613 2°53.094 349.1 13 338 10
2005-02-23 07:52:34 51°15.63 2°53.083 348.9 13 338 10
2005-02-23 07:52:39 51°15.645 2°53.073 349.1 13 338 10.3
2005-02-23 07:52:43 51°15.658 2°53.065 349.1 13.1 338 10.2
2005-02-23 07:52:49 51°15.68 2°53.05 349.1 13.1 338 10.4
2005-02-23 07:52:54 51°15.696 2°53.039 348.5 13 336 10.5
2005-02-23 07:52:59 51°15.711 2°53.029 347.8 13.1 336 10.4
2005-02-23 07:53:05 51°15.731 2°53.015 347.9 13.1 336 10.5
2005-02-23 07:53:10 51°15.747 2°53.004 348.2 12.9 336 10.6
2005-02-23 07:53:13 51°15.759 2°52.996 348.3 12.9 337 10.4
2005-02-23 07:53:19 51°15.779 2°52.983 348.6 12.9 337 10.4
2005-02-23 07:53:25 51°15.797 2°52.97 349.2 12.9 337 10.5
2005-02-23 07:53:30 51°15.814 2°52.959 349.3 13 337 10.5
2005-02-23 07:53:35 51°15.831 2°52.949 349.3 12.9 338 10.6
2005-02-23 07:53:39 51°15.844 2°52.941 349.9 12.9 338 10.7
2005-02-23 07:53:43 51°15.857 2°52.933 350.3 12.8 339 10.7
2005-02-23 07:53:49 51°15.879 2°52.919 350.2 12.9 338 10.7
2005-02-23 07:53:55 51°15.897 2°52.908 349.9 12.8 339 10.7
2005-02-23 07:53:59 51°15.913 2°52.899 349.7 13 339 10.7
2005-02-23 07:54:04 51°15.929 2°52.889 349.8 12.9 338 10.8
2005-02-23 07:54:09 51°15.946 2°52.88 350.2 13 340 10.8
2005-02-23 07:54:14 51°15.961 2°52.872 350.5 13 340 10.8
2005-02-23 07:54:19 51°15.979 2°52.862 350.9 13 340 10.9
2005-02-23 07:54:23 51°15.992 2°52.855 350.3 13 341 11
2005-02-23 07:54:29 51°16.011 2°52.844 349.6 13 340 10.9
2005-02-23 07:54:34 51°16.028 2°52.834 348.9 12.8 340 10.9
2005-02-23 07:54:39 51°16.046 2°52.824 348.6 12.7 341 11
2005-02-23 07:54:45 51°16.066 2°52.813 349 12.7 341 11
2005-02-23 07:54:49 51°16.08 2°52.805 349.1 12.5 341 10.9
2005-02-23 07:54:54 51°16.096 2°52.796 349.1 12.5 341 11.3
2005-02-23 07:55:00 51°16.115 2°52.785 349.2 12.7 340 11.1
2005-02-23 07:55:05 51°16.131 2°52.775 348.5 12.7 339 11
2005-02-23 07:55:09 51°16.146 2°52.765 348.1 12.7 339 11.2
2005-02-23 07:55:14 51°16.161 2°52.757 348.3 12.9 340 11.2
2005-02-23 07:55:18 51°16.176 2°52.748 348.4 12.8 340 11.2
2005-02-23 07:55:25 51°16.198 2°52.736 348.7 12.8 341 11.4
2005-02-23 07:55:29 51°16.214 2°52.727 349 12.8 341 11.4
2005-02-23 07:55:34 51°16.23 2°52.718 349.2 12.8 340 11.4
2005-02-23 07:55:39 51°16.245 2°52.71 349.2 12.8 341 11.3
2005-02-23 07:55:44 51°16.264 2°52.7 349.3 12.8 340 11.3
2005-02-23 07:55:49 51°16.281 2°52.69 348.9 12.9 340 11.1
2005-02-23 07:55:53 51°16.294 2°52.682 348.4 12.9 340 11.3
2005-02-23 07:56:00 51°16.316 2°52.67 349.1 12.9 340 11.3
2005-02-23 07:56:04 51°16.331 2°52.662 349.3 12.8 341 11.3
2005-02-23 07:56:10 51°16.35 2°52.65 348.9 12.8 341 11.3
2005-02-23 07:56:14 51°16.364 2°52.641 348.2 12.8 340 11.5
2005-02-23 07:56:19 51°16.38 2°52.632 347.6 12.9 339 11.5
2005-02-23 07:56:24 51°16.396 2°52.624 348.1 12.9 339 11.2
2005-02-23 07:56:29 51°16.415 2°52.613 349.1 12.9 339 11.2
2005-02-23 07:56:34 51°16.43 2°52.605 348.9 12.5 341 11.3
2005-02-23 07:56:40 51°16.45 2°52.594 348.9 12.5 341 11.1
2005-02-23 07:56:44 51°16.463 2°52.586 348.9 12.9 340 11
2005-02-23 07:56:49 51°16.481 2°52.576 348.6 12.7 340 10.9
2005-02-23 07:56:53 51°16.495 2°52.569 348.5 12.7 340 10.7
2005-02-23 07:56:59 51°16.512 2°52.558 348.4 12.6 340 10.7
2005-02-23 07:57:05 51°16.533 2°52.546 348.3 12.6 340 10.5
2005-02-23 07:57:10 51°16.549 2°52.537 348.3 12.9 340 10.1
2005-02-23 07:57:14 51°16.563 2°52.531 348.4 12.9 340 10.6
2005-02-23 07:57:19 51°16.579 2°52.523 350 11.9 344 10.1
2005-02-23 07:57:24 51°16.595 2°52.516 351.7 12 345 10
2005-02-23 07:57:29 51°16.612 2°52.51 353.1 12.1 346 10
2005-02-23 07:57:35 51°16.63 2°52.504 354.1 12.1 346 10
2005-02-23 07:57:38 51°16.641 2°52.5 355 12.2 348 9.9
2005-02-23 07:57:45 51°16.663 2°52.493 355.6 12.2 348 9.7
2005-02-23 07:57:49 51°16.678 2°52.487 356.3 12.2 348 9.6
2005-02-23 07:57:54 51°16.694 2°52.482 356.3 12.2 348 9.4
2005-02-23 07:57:59 51°16.709 2°52.477 356.3 12.2 348 9
2005-02-23 07:58:04 51°16.728 2°52.471 356.6 12.2 349 8.6
2005-02-23 07:58:09 51°16.742 2°52.467 356.9 12.2 349 8.8
2005-02-23 07:58:14 51°16.76 2°52.46 356.7 12.2 349 8.9
2005-02-23 07:58:19 51°16.775 2°52.456 356.9 12.1 348 9
2005-02-23 07:58:25 51°16.795 2°52.449 357 12.1 348 9.1
2005-02-23 07:58:29 51°16.81 2°52.445 357 12.1 348 9
2005-02-23 07:58:35 51°16.828 2°52.439 356.9 12.1 348 9
2005-02-23 07:58:39 51°16.842 2°52.435 357.2 12.1 348 9
2005-02-23 07:58:44 51°16.861 2°52.429 357 12.4 349 9
2005-02-23 07:58:50 51°16.878 2°52.423 357 12.2 348 9
2005-02-23 07:58:53 51°16.89 2°52.419 356.8 12.2 349 8.8
2005-02-23 07:58:59 51°16.908 2°52.414 357 12.2 349 8.5
2005-02-23 07:59:05 51°16.928 2°52.407 357.3 12.1 349 8.4
2005-02-23 07:59:09 51°16.943 2°52.403 357.2 12.3 349 8.6
2005-02-23 07:59:14 51°16.958 2°52.398 357 12.3 349 8.5
2005-02-23 07:59:19 51°16.974 2°52.392 356.4 12.1 348 8.6
2005-02-23 07:59:25 51°16.993 2°52.386 356.5 12.2 348 8.7
2005-02-23 07:59:29 51°17.005 2°52.381 356.6 12.2 348 8.6
2005-02-23 07:59:34 51°17.024 2°52.375 356.5 11.4 347 47.3
2005-02-23 07:59:39 51°17.039 2°52.369 356.5 11.4 347 8.7
2005-02-23 07:59:45 51°17.058 2°52.363 356.6 12.1 348 8.6
2005-02-23 07:59:49 51°17.073 2°52.358 356.5 12.1 348 8.8
2005-02-23 07:59:54 51°17.089 2°52.352 356.4 12 347 9
2005-02-23 07:59:59 51°17.104 2°52.346 356.3 12 347 9.1
2005-02-23 08:00:05 51°17.123 2°52.339 356.5 12.2 348 9.2
2005-02-23 08:00:09 51°17.139 2°52.334 356.7 12.2 348 9.1
2005-02-23 08:00:14 51°17.156 2°52.328 356.5 12.1 348 9.1
2005-02-23 08:00:19 51°17.171 2°52.323 356.6 12.1 348 9.3
2005-02-23 08:00:24 51°17.188 2°52.317 356.9 12.3 349 9.3
2005-02-23 08:00:29 51°17.205 2°52.311 357.1 12.3 349 9.2
2005-02-23 08:00:35 51°17.223 2°52.305 356.9 12.3 349 9.4
2005-02-23 08:00:39 51°17.236 2°52.3 356.3 12.4 346 9.2
2005-02-23 08:00:45 51°17.257 2°52.292 356 12.2 347 9.3
2005-02-23 08:00:49 51°17.27 2°52.287 355.9 12.1 345 9.5
2005-02-23 08:00:54 51°17.288 2°52.279 355.4 12.1 345 9.4
2005-02-23 08:00:59 51°17.303 2°52.274 355.4 12.3 346 9.6
2005-02-23 08:01:04 51°17.321 2°52.268 356.2 12.5 348 9.5
2005-02-23 08:01:09 51°17.338 2°52.262 356.9 12.4 347 9.4
2005-02-23 08:01:14 51°17.355 2°52.255 356.3 12.3 347 9.4
2005-02-23 08:01:19 51°17.369 2°52.25 356.5 12.3 347 9.5
2005-02-23 08:01:24 51°17.388 2°52.243 356.6 12.4 347 9.4
2005-02-23 08:01:29 51°17.405 2°52.237 356.3 12.4 346 9.4
2005-02-23 08:01:34 51°17.42 2°52.231 356.6 12.3 347 9.5
2005-02-23 08:01:39 51°17.437 2°52.224 356.5 12.3 347 9.6
2005-02-23 08:01:44 51°17.455 2°52.218 356.6 12.2 347 9.5
2005-02-23 08:01:49 51°17.471 2°52.212 356.9 12.2 347 9.5
2005-02-23 08:01:54 51°17.488 2°52.205 357.1 12.3 347 9.6
2005-02-23 08:01:59 51°17.503 2°52.2 356.7 12.3 347 9.6
2005-02-23 08:02:05 51°17.523 2°52.193 356.8 12.3 347 9.5
2005-02-23 08:02:09 51°17.539 2°52.187 357 12.3 347 9.5
2005-02-23 08:02:13 51°17.552 2°52.184 356.9 12.4 351 9.5
2005-02-23 08:02:19 51°17.573 2°52.183 0.6 12.4 351 9.6
2005-02-23 08:02:25 51°17.591 2°52.184 5.2 12.4 351 9.4
2005-02-23 08:02:29 51°17.606 2°52.185 8.5 12.4 351 9.5
2005-02-23 08:02:35 51°17.624 2°52.189 11.9 12.1 5 9.5
2005-02-23 08:02:39 51°17.639 2°52.191 13.9 12.1 8 9.5
2005-02-23 08:02:44 51°17.655 2°52.195 14.8 11.9 7 9.4
2005-02-23 08:02:49 51°17.671 2°52.2 16.1 11.9 7 9.6
2005-02-23 08:02:55 51°17.69 2°52.205 17 12.1 9 9.2
2005-02-23 08:02:59 51°17.704 2°52.209 17.2 12.1 10 9.4
2005-02-23 08:03:05 51°17.723 2°52.214 17.2 11.9 9 9.3
2005-02-23 08:03:09 51°17.736 2°52.217 17.8 11.8 10 9.4
2005-02-23 08:03:14 51°17.753 2°52.221 16.9 12 8 9.5
2005-02-23 08:03:19 51°17.77 2°52.225 16.8 11.9 8 9.5
2005-02-23 08:03:24 51°17.786 2°52.229 16.6 11.9 8 9.6
2005-02-23 08:03:29 51°17.802 2°52.233 16.6 11.9 8 9.5
2005-02-23 08:03:34 51°17.817 2°52.24 17.1 11.8 14 9.5
2005-02-23 08:03:38 51°17.831 2°52.247 21.2 11.7 18 9.5
2005-02-23 08:03:44 51°17.849 2°52.259 25.1 11.9 19 9.5
2005-02-23 08:03:49 51°17.863 2°52.269 27.8 11.4 23 9.5
2005-02-23 08:03:54 51°17.878 2°52.28 29.8 11.5 25 9.4
2005-02-23 08:03:59 51°17.892 2°52.292 31.5 11.5 25 9.4
2005-02-23 08:04:05 51°17.908 2°52.305 32.5 11.6 26 9.5
2005-02-23 08:04:09 51°17.921 2°52.315 32.8 11.6 27 9.5
2005-02-23 08:04:14 51°17.935 2°52.326 33.6 11.4 27 9.5
2005-02-23 08:04:19 51°17.948 2°52.336 33.3 11.7 26 9.6
2005-02-23 08:04:24 51°17.964 2°52.348 32.8 11.6 26 9.7
2005-02-23 08:04:29 51°17.978 2°52.359 32.7 11.6 26 9.7
2005-02-23 08:04:34 51°17.993 2°52.371 32.6 11.6 26 9.7
2005-02-23 08:04:39 51°18.006 2°52.381 32.5 11.5 25 9.7
2005-02-23 08:04:44 51°18.021 2°52.394 32.6 11.5 27 9.8
2005-02-23 08:04:50 51°18.037 2°52.406 33.2 11.6 26 9.8
2005-02-23 08:04:55 51°18.052 2°52.417 32.7 11.7 26 9.7
2005-02-23 08:04:59 51°18.064 2°52.426 32.7 11.7 26 9.8
2005-02-23 08:05:04 51°18.079 2°52.439 31.5 11.7 26 9.8
2005-02-23 08:05:09 51°18.092 2°52.453 33.8 11.4 30 9.8
2005-02-23 08:05:13 51°18.103 2°52.466 37 11.6 36 9.8
2005-02-23 08:05:19 51°18.117 2°52.483 40.6 11.6 36 9.7
2005-02-23 08:05:24 51°18.131 2°52.5 42.4 11.6 38 9.7
2005-02-23 08:05:29 51°18.144 2°52.517 43.5 11.7 40 9.7
2005-02-23 08:05:33 51°18.153 2°52.531 44.7 11.7 40 9.8
2005-02-23 08:05:39 51°18.167 2°52.55 44.9 11.6 40 10
2005-02-23 08:05:44 51°18.18 2°52.569 45.3 11.5 42 9.9
2005-02-23 08:05:49 51°18.192 2°52.587 46 11.5 42 9.9
2005-02-23 08:05:54 51°18.204 2°52.603 46.6 11.5 42 10
2005-02-23 08:05:59 51°18.215 2°52.619 46.2 11.5 42 10
2005-02-23 08:06:04 51°18.229 2°52.638 45.8 11.9 40 10.1
2005-02-23 08:06:09 51°18.241 2°52.655 44.9 11.9 40 10.1
2005-02-23 08:06:14 51°18.254 2°52.671 45.2 11.9 40 10.1
2005-02-23 08:06:19 51°18.265 2°52.687 44.5 11.9 40 10.1
2005-02-23 08:06:24 51°18.279 2°52.706 44.7 11.9 39 10
2005-02-23 08:06:29 51°18.291 2°52.723 44.7 11.8 41 10.1
2005-02-23 08:06:34 51°18.304 2°52.74 45.1 11.9 41 10
2005-02-23 08:06:39 51°18.315 2°52.755 45.2 11.9 40 10
2005-02-23 08:06:44 51°18.329 2°52.773 45.3 11.8 42 10.4
2005-02-23 08:06:49 51°18.341 2°52.79 44.8 11.7 40 10.2
2005-02-23 08:06:55 51°18.355 2°52.809 45 11.8 40 10.2
2005-02-23 08:06:59 51°18.366 2°52.824 45.8 11.8 40 10.2
2005-02-23 08:07:05 51°18.379 2°52.842 44.4 11.8 40 10.3
2005-02-23 08:07:10 51°18.392 2°52.859 44.5 11.8 40 10.2
2005-02-23 08:07:14 51°18.402 2°52.873 44.7 11.8 40 10.1
2005-02-23 08:07:19 51°18.415 2°52.89 45.2 11.9 41 10.2
2005-02-23 08:07:24 51°18.429 2°52.909 44.9 12 39 10.5
2005-02-23 08:07:29 51°18.441 2°52.926 44.6 12 39 10.2
2005-02-23 08:07:35 51°18.454 2°52.945 44.2 12 39 10.3
2005-02-23 08:07:39 51°18.463 2°52.961 47.4 12 39 10.4
2005-02-23 08:07:44 51°18.475 2°52.983 50.6 11.8 48 10.5
2005-02-23 08:07:49 51°18.485 2°53.004 52.8 11.8 48 10.4
2005-02-23 08:07:54 51°18.495 2°53.025 54.8 12.1 53 10.5
2005-02-23 08:07:59 51°18.504 2°53.044 55.7 12 52 10.5
2005-02-23 08:08:04 51°18.514 2°53.069 57.2 11.9 55 10.3
2005-02-23 08:08:09 51°18.523 2°53.09 58.4 11.9 55 10.5
2005-02-23 08:08:14 51°18.533 2°53.112 58.5 12 55 10.4
2005-02-23 08:08:19 51°18.541 2°53.133 58.2 12 55 10.1
2005-02-23 08:08:25 51°18.553 2°53.159 58.8 12.1 57 10.2
2005-02-23 08:08:29 51°18.562 2°53.178 58.3 12.1 57 10.4
2005-02-23 08:08:34 51°18.571 2°53.2 58 12.1 57 10.4
2005-02-23 08:08:38 51°18.579 2°53.218 58.2 12.1 57 10.5
2005-02-23 08:08:45 51°18.591 2°53.245 57.9 12 55 10.6
2005-02-23 08:08:49 51°18.6 2°53.265 56.9 12 55 10.6
2005-02-23 08:08:54 51°18.609 2°53.288 58 12.4 58 10.5
2005-02-23 08:08:59 51°18.616 2°53.311 61 12.4 58 10.2
2005-02-23 08:09:05 51°18.624 2°53.341 64.4 12.2 65 10.2
2005-02-23 08:09:09 51°18.629 2°53.362 67.2 12.2 69 10.3
2005-02-23 08:09:14 51°18.635 2°53.387 69.3 12.1 68 10.5
2005-02-23 08:09:19 51°18.641 2°53.412 70.9 12.2 74 10.7
2005-02-23 08:09:23 51°18.645 2°53.433 71.3 12.2 74 10.5
2005-02-23 08:09:29 51°18.651 2°53.465 72.5 12 73 10.4
2005-02-23 08:09:34 51°18.656 2°53.49 72.3 12 70 10.5
2005-02-23 08:09:39 51°18.661 2°53.515 73 12.2 73 10.5
2005-02-23 08:09:44 51°18.667 2°53.54 72.5 12.1 70 10.5
2005-02-23 08:09:49 51°18.672 2°53.566 72.9 12.2 76 10.6
2005-02-23 08:09:54 51°18.676 2°53.589 72.9 11.9 72 10.3
2005-02-23 08:09:59 51°18.682 2°53.616 72.6 12 73 10.4
2005-02-23 08:10:03 51°18.686 2°53.637 72.1 12.1 70 10.6
2005-02-23 08:10:09 51°18.693 2°53.669 71.5 12.2 71 10.6
2005-02-23 08:10:14 51°18.698 2°53.692 71.8 12.1 70 10.6
2005-02-23 08:10:18 51°18.702 2°53.713 71.5 12.1 70 10.8
2005-02-23 08:10:24 51°18.708 2°53.744 72.3 11.9 73 10.8
2005-02-23 08:10:29 51°18.713 2°53.765 72.4 12 71 10.7
2005-02-23 08:10:34 51°18.718 2°53.793 71.9 12 71 10.6
2005-02-23 08:10:40 51°18.724 2°53.821 71.8 12 70 10.7
2005-02-23 08:10:44 51°18.729 2°53.843 71.4 11.9 72 10.4
2005-02-23 08:10:49 51°18.734 2°53.867 71.7 11.9 72 10.5
2005-02-23 08:10:55 51°18.74 2°53.896 71.2 12.1 72 10.5
2005-02-23 08:11:00 51°18.745 2°53.921 71.5 12 70 10.5
2005-02-23 08:11:04 51°18.75 2°53.943 70.8 11.9 72 10.6
2005-02-23 08:11:08 51°18.755 2°53.962 71.1 11.8 70 10.6
2005-02-23 08:11:15 51°18.762 2°53.997 71.1 12 72 10.6
2005-02-23 08:11:18 51°18.767 2°54.014 71.1 12.1 72 10.4
2005-02-23 08:11:24 51°18.772 2°54.044 70.7 11.9 73 10.6
2005-02-23 08:11:29 51°18.777 2°54.067 71.5 11.9 73 10.5
2005-02-23 08:11:35 51°18.783 2°54.096 71.4 11.9 71 10.4
2005-02-23 08:11:40 51°18.789 2°54.119 71.2 11.9 71 10.3
2005-02-23 08:11:44 51°18.794 2°54.141 70.7 11.8 70 10.4
2005-02-23 08:11:49 51°18.799 2°54.168 70.3 11.7 70 10.5
2005-02-23 08:11:55 51°18.805 2°54.195 71.2 12 72 10.5
2005-02-23 08:11:59 51°18.81 2°54.218 70.9 12 72 10.4
2005-02-23 08:12:04 51°18.816 2°54.243 70.6 11.8 71 10.5
2005-02-23 08:12:10 51°18.822 2°54.27 71.1 11.8 72 10.4
2005-02-23 08:12:14 51°18.826 2°54.291 71.1 11.8 72 10.4
2005-02-23 08:12:20 51°18.832 2°54.317 70.7 11.8 72 10.4
2005-02-23 08:12:24 51°18.838 2°54.34 70.9 11.9 71 10.3
2005-02-23 08:12:29 51°18.843 2°54.366 70.8 11.9 68 10.4
2005-02-23 08:12:34 51°18.849 2°54.39 71.2 11.9 68 10.4
2005-02-23 08:12:39 51°18.855 2°54.415 71.8 12 74 10.6
2005-02-23 08:12:44 51°18.859 2°54.439 71.4 11.8 72 10.5
2005-02-23 08:12:49 51°18.865 2°54.466 71.2 11.8 72 10.3
2005-02-23 08:12:54 51°18.87 2°54.49 71.2 11.8 70 10.3
2005-02-23 08:12:59 51°18.877 2°54.515 71.2 11.9 72 10.5
2005-02-23 08:13:04 51°18.882 2°54.54 70.8 11.9 68 10.4
2005-02-23 08:13:09 51°18.888 2°54.562 71 11.9 68 10.4
2005-02-23 08:13:14 51°18.893 2°54.589 69.3 11.8 72 10.7
2005-02-23 08:13:18 51°18.898 2°54.608 71.2 11.8 73 10.5
2005-02-23 08:13:24 51°18.905 2°54.638 70.8 11.8 66 10.7
2005-02-23 08:13:29 51°18.91 2°54.663 70.6 11.8 69 10.6
2005-02-23 08:13:34 51°18.916 2°54.685 70.7 11.9 70 10.5
2005-02-23 08:13:39 51°18.922 2°54.712 70 11.9 70 10.5
2005-02-23 08:13:44 51°18.928 2°54.736 70.2 11.9 70 10.5
2005-02-23 08:13:48 51°18.933 2°54.756 70.4 11.9 70 10.5
2005-02-23 08:13:54 51°18.94 2°54.785 70 11.7 68 10.5
2005-02-23 08:13:58 51°18.945 2°54.805 70.3 11.9 71 10.6
2005-02-23 08:14:04 51°18.951 2°54.834 70.4 11.9 69 10.5
2005-02-23 08:14:10 51°18.958 2°54.861 71.6 12 72 10.6
2005-02-23 08:14:15 51°18.962 2°54.885 71.3 11.9 70 10.4
2005-02-23 08:14:18 51°18.967 2°54.904 72.1 11.9 70 10.1
2005-02-23 08:14:24 51°18.973 2°54.934 71.8 12 71 10.2
2005-02-23 08:14:29 51°18.978 2°54.957 71.3 11.9 68 10.2
2005-02-23 08:14:34 51°18.984 2°54.984 71.1 11.9 72 10.2
2005-02-23 08:14:39 51°18.99 2°55.009 71.3 11.9 72 10.2
2005-02-23 08:14:44 51°18.996 2°55.034 71.5 11.9 72 10.3
2005-02-23 08:14:49 51°19.001 2°55.058 70.4 12 68 10.2
2005-02-23 08:14:54 51°19.007 2°55.083 71.1 11.9 68 10.2
2005-02-23 08:14:59 51°19.012 2°55.106 70.7 12 70 10.2
2005-02-23 08:15:05 51°19.019 2°55.134 70.8 11.9 70 10.3
2005-02-23 08:15:09 51°19.024 2°55.153 71.4 11.9 72 10.3
2005-02-23 08:15:14 51°19.03 2°55.183 71.1 11.9 72 10.4
2005-02-23 08:15:19 51°19.034 2°55.203 71 11.9 72 10.4
2005-02-23 08:15:25 51°19.041 2°55.233 70.9 11.9 65 10.4
2005-02-23 08:15:29 51°19.047 2°55.255 71.3 12 72 10.5
2005-02-23 08:15:33 51°19.051 2°55.275 71.1 12.1 68 10.3
2005-02-23 08:15:39 51°19.058 2°55.306 70.6 12 69 10.3
2005-02-23 08:15:43 51°19.062 2°55.323 71.4 11.9 71 10.4
2005-02-23 08:15:49 51°19.07 2°55.356 71.3 12.1 70 10.3
2005-02-23 08:15:55 51°19.079 2°55.379 71.2 12.1 70 10.4
2005-02-23 08:15:59 51°19.08 2°55.405 70.9 12 69 10.6
2005-02-23 08:16:05 51°19.088 2°55.434 70.8 12 70 10.3
2005-02-23 08:16:09 51°19.093 2°55.456 69.4 12 68 10.2
2005-02-23 08:16:14 51°19.099 2°55.479 70.4 12 68 10.2
2005-02-23 08:16:18 51°19.104 2°55.5 69.8 12 68 10.1
2005-02-23 08:16:24 51°19.112 2°55.53 70.8 12 68 10
2005-02-23 08:16:29 51°19.117 2°55.555 70.6 12 68 10.1
2005-02-23 08:16:33 51°19.122 2°55.575 71.6 12.1 70 10.2
2005-02-23 08:16:39 51°19.129 2°55.603 70.9 12.1 70 10.1
2005-02-23 08:16:43 51°19.134 2°55.622 69.9 12 68 10.1
2005-02-23 08:16:49 51°19.142 2°55.655 70.4 12 68 10.1
2005-02-23 08:16:55 51°19.149 2°55.682 70.9 12 68 10.2
2005-02-23 08:16:59 51°19.153 2°55.703 70.4 12 67 10.3
2005-02-23 08:17:05 51°19.16 2°55.732 71.1 12.1 68 10.4
2005-02-23 08:17:09 51°19.165 2°55.753 70.4 12.3 70 10.3
2005-02-23 08:17:14 51°19.171 2°55.778 70.9 12.2 69 10.3
2005-02-23 08:17:19 51°19.178 2°55.802 70.6 12.2 69 10.4
2005-02-23 08:17:25 51°19.185 2°55.833 70.4 12.1 69 10.2
2005-02-23 08:17:29 51°19.191 2°55.855 70 12.1 69 10.3
2005-02-23 08:17:33 51°19.196 2°55.875 69.2 12.1 66 10.1
2005-02-23 08:17:40 51°19.205 2°55.907 68.2 12 68 10.2
2005-02-23 08:17:44 51°19.211 2°55.929 68.1 12 66 10.2
2005-02-23 08:17:49 51°19.217 2°55.954 68.4 12 66 10.2
2005-02-23 08:17:54 51°19.224 2°55.979 67.9 12.2 67 10
2005-02-23 08:17:59 51°19.23 2°56.001 68.2 12.3 69 9.9
2005-02-23 08:18:04 51°19.237 2°56.028 69 12.3 67 10
2005-02-23 08:18:09 51°19.243 2°56.053 68.2 12.1 66 10
2005-02-23 08:18:15 51°19.251 2°56.08 68.5 12 68 10.1
2005-02-23 08:18:19 51°19.256 2°56.1 68.3 12.2 67 10.2
2005-02-23 08:18:24 51°19.264 2°56.127 68.2 12.2 67 10.2
2005-02-23 08:18:29 51°19.271 2°56.152 67.4 12.2 65 10.2
2005-02-23 08:18:35 51°19.279 2°56.18 67.2 12.2 66 10.1
2005-02-23 08:18:39 51°19.284 2°56.2 67.4 12.4 66 10
2005-02-23 08:18:44 51°19.291 2°56.226 67 12.4 66 10.1
2005-02-23 08:18:50 51°19.299 2°56.253 68.2 12.4 66 9.9
2005-02-23 08:18:55 51°19.305 2°56.277 67.7 12 63 9.8
2005-02-23 08:18:59 51°19.311 2°56.296 68.3 12.1 69 9.9
2005-02-23 08:19:03 51°19.316 2°56.315 67.4 11.9 64 9.9
2005-02-23 08:19:09 51°19.325 2°56.347 67.8 11.9 64 10.1
2005-02-23 08:19:14 51°19.332 2°56.371 66.6 12.2 64 10.2
2005-02-23 08:19:19 51°19.339 2°56.396 66.9 11.9 66 10.1
2005-02-23 08:19:25 51°19.347 2°56.423 67.2 11.9 66 10
2005-02-23 08:19:29 51°19.352 2°56.444 67.6 11.9 66 10.2
2005-02-23 08:19:34 51°19.359 2°56.469 68.2 12 67 10.1
2005-02-23 08:19:39 51°19.366 2°56.493 68.2 12.1 67 10.1
2005-02-23 08:19:45 51°19.373 2°56.519 67.5 12.1 70 10.2
2005-02-23 08:19:49 51°19.38 2°56.541 68.1 12 64 10.1
2005-02-23 08:19:53 51°19.384 2°56.561 66.5 11.8 68 10.2
2005-02-23 08:19:59 51°19.392 2°56.589 68.1 11.9 65 10.1
2005-02-23 08:20:04 51°19.398 2°56.613 67.5 11.9 64 9.9
2005-02-23 08:20:09 51°19.405 2°56.637 67.9 11.9 64 9.9
2005-02-23 08:20:15 51°19.412 2°56.664 68.6 11.7 65 9.9
2005-02-23 08:20:19 51°19.418 2°56.683 67.8 11.7 65 10
2005-02-23 08:20:25 51°19.425 2°56.711 67.7 11.8 66 10
2005-02-23 08:20:29 51°19.431 2°56.733 67.5 11.8 66 9.9
2005-02-23 08:20:35 51°19.439 2°56.759 68.2 11.9 69 10
2005-02-23 08:20:39 51°19.443 2°56.779 67.9 11.6 66 10.1
2005-02-23 08:20:44 51°19.451 2°56.805 69.3 11.9 67 10
2005-02-23 08:20:50 51°19.457 2°56.832 68.1 11.9 67 10
2005-02-23 08:20:54 51°19.463 2°56.853 68.2 11.9 69 10
2005-02-23 08:20:59 51°19.469 2°56.875 68.6 11.9 67 9.9
2005-02-23 08:21:04 51°19.476 2°56.901 68.8 12 68 9.8
2005-02-23 08:21:09 51°19.483 2°56.925 68.3 11.6 68 9.7
2005-02-23 08:21:13 51°19.487 2°56.944 68.6 11.5 67 9.8
2005-02-23 08:21:19 51°19.494 2°56.97 68.3 11.5 67 9.6
2005-02-23 08:21:24 51°19.502 2°56.997 68.7 11.9 65 9.7
2005-02-23 08:21:29 51°19.508 2°57.021 67.9 11.9 65 9.8
2005-02-23 08:21:35 51°19.516 2°57.047 68.2 11.8 65 9.9
2005-02-23 08:21:40 51°19.523 2°57.071 67.8 11.8 65 10
2005-02-23 08:21:45 51°19.529 2°57.095 67.4 11.7 68 9.8
2005-02-23 08:21:49 51°19.534 2°57.114 68.4 11.8 67 9.8
2005-02-23 08:21:53 51°19.54 2°57.136 67.8 11.9 68 9.8
2005-02-23 08:21:59 51°19.548 2°57.165 68.5 12 64 10
2005-02-23 08:22:05 51°19.555 2°57.192 67.4 12 64 9.9
2005-02-23 08:22:09 51°19.562 2°57.212 68.2 12 64 9.9
2005-02-23 08:22:14 51°19.569 2°57.237 67.2 11.8 67 9.9
2005-02-23 08:22:19 51°19.574 2°57.258 67.5 11.8 67 9.9
2005-02-23 08:22:25 51°19.582 2°57.287 68 11.9 66 9.7
2005-02-23 08:22:29 51°19.588 2°57.309 67.8 11.9 66 9.7
2005-02-23 08:22:35 51°19.595 2°57.336 68.2 11.9 65 9.7
2005-02-23 08:22:39 51°19.601 2°57.355 68.9 12 65 9.7
2005-02-23 08:22:45 51°19.609 2°57.384 67.6 12 67 9.8
2005-02-23 08:22:49 51°19.615 2°57.403 68.4 12 67 9.8
2005-02-23 08:22:55 51°19.622 2°57.433 67.7 11.8 67 9.7
2005-02-23 08:22:59 51°19.628 2°57.451 68.4 11.9 66 9.7
2005-02-23 08:23:04 51°19.635 2°57.478 67.9 12 65 9.6
2005-02-23 08:23:10 51°19.643 2°57.504 67.8 12 64 9.7
2005-02-23 08:23:15 51°19.65 2°57.529 67.4 12 66 9.7
2005-02-23 08:23:19 51°19.656 2°57.551 68.7 12.1 67 9.7
2005-02-23 08:23:25 51°19.663 2°57.578 67.7 12 65 9.6
2005-02-23 08:23:29 51°19.669 2°57.599 68.1 12 67 9.6
2005-02-23 08:23:33 51°19.674 2°57.619 68.1 11.9 67 9.6
2005-02-23 08:23:39 51°19.681 2°57.646 68.2 11.9 67 9.6
2005-02-23 08:23:45 51°19.689 2°57.675 68.5 12 67 9.8
2005-02-23 08:23:49 51°19.695 2°57.694 68.7 12 66 9.8
2005-02-23 08:23:55 51°19.704 2°57.724 68.7 12 66 9.9
2005-02-23 08:23:59 51°19.708 2°57.744 68.2 12.1 64 9.8
2005-02-23 08:24:04 51°19.717 2°57.77 67.5 11.9 64 9.7
2005-02-23 08:24:09 51°19.723 2°57.794 67.4 11.9 66 9.9
2005-02-23 08:24:14 51°19.729 2°57.815 68.2 11.9 67 9.8
2005-02-23 08:24:19 51°19.735 2°57.841 68.3 11.9 67 9.7
2005-02-23 08:24:24 51°19.743 2°57.867 68.7 12 66 9.7
2005-02-23 08:24:29 51°19.75 2°57.892 68.9 12.2 68 9.6
2005-02-23 08:24:35 51°19.756 2°57.919 68.6 12.1 66 9.6
2005-02-23 08:24:39 51°19.762 2°57.938 69.4 12 70 9.5
2005-02-23 08:24:45 51°19.77 2°57.969 68.8 12.3 65 9.5
2005-02-23 08:24:49 51°19.776 2°57.99 68.5 12.3 65 9.5
2005-02-23 08:24:55 51°19.783 2°58.017 68.5 12 66 9.6
2005-02-23 08:24:59 51°19.789 2°58.037 69.2 12.3 67 9.5
2005-02-23 08:25:04 51°19.796 2°58.065 69.4 12.3 67 9.6
2005-02-23 08:25:10 51°19.803 2°58.092 68.9 12.3 67 9.6
2005-02-23 08:25:14 51°19.81 2°58.114 68.9 12.3 66 9.5
2005-02-23 08:25:19 51°19.817 2°58.137 68.6 12.3 65 9.8
2005-02-23 08:25:24 51°19.824 2°58.164 67.9 12.2 66 9.7
2005-02-23 08:25:29 51°19.83 2°58.187 68.6 12.1 67 9.8
2005-02-23 08:25:35 51°19.838 2°58.216 68.4 12.3 66 9.5
2005-02-23 08:25:39 51°19.843 2°58.237 68.8 12.4 67 9.2
2005-02-23 08:25:45 51°19.851 2°58.267 69.3 12.5 66 9.4
2005-02-23 08:25:49 51°19.858 2°58.291 69.1 12.6 67 9.4
2005-02-23 08:25:53 51°19.863 2°58.31 68.8 12.6 65 9.5
2005-02-23 08:25:59 51°19.871 2°58.338 67.9 12.5 66 9.4
2005-02-23 08:26:05 51°19.88 2°58.368 68.8 12.5 66 9.5
2005-02-23 08:26:09 51°19.886 2°58.391 68.6 12.5 66 9.5
2005-02-23 08:26:15 51°19.893 2°58.418 68.5 12.4 65 9.5
2005-02-23 08:26:19 51°19.899 2°58.437 69.1 12.5 70 9.8
2005-02-23 08:26:25 51°19.908 2°58.468 68.4 12.5 68 9.5
2005-02-23 08:26:30 51°19.915 2°58.493 67.6 12.5 68 9.4
2005-02-23 08:26:35 51°19.922 2°58.518 67.5 12.5 68 9.4
2005-02-23 08:26:40 51°19.928 2°58.543 67.9 12.4 64 9.4
2005-02-23 08:26:44 51°19.935 2°58.565 67.6 12.4 64 9.5
2005-02-23 08:26:49 51°19.941 2°58.59 67.5 12.4 64 9.5
2005-02-23 08:26:55 51°19.95 2°58.618 68.6 12.2 69 9.4
2005-02-23 08:27:00 51°19.957 2°58.643 68.2 12.3 67 9.4
2005-02-23 08:27:05 51°19.964 2°58.668 68.5 12.3 67 9.4
2005-02-23 08:27:09 51°19.97 2°58.689 67.9 12.3 67 9.5
2005-02-23 08:27:15 51°19.979 2°58.717 67.7 12.5 66 9.7
2005-02-23 08:27:19 51°19.983 2°58.737 67.5 12.1 64 9.7
2005-02-23 08:27:25 51°19.993 2°58.766 68.2 12.2 64 9.7
2005-02-23 08:27:29 51°19.999 2°58.789 67.4 12.2 64 9.6
2005-02-23 08:27:34 51°20.006 2°58.814 67.3 12.4 65 9.4
2005-02-23 08:27:39 51°20.013 2°58.836 68.2 12.5 67 9.5
2005-02-23 08:27:45 51°20.021 2°58.867 67.5 12.5 66 9.5
2005-02-23 08:27:49 51°20.028 2°58.889 67.6 12.3 65 9.7
2005-02-23 08:27:55 51°20.035 2°58.916 67.7 12.2 69 9.7
2005-02-23 08:27:59 51°20.042 2°58.935 68.6 12.3 65 9.6
2005-02-23 08:28:04 51°20.049 2°58.964 67.5 12.3 65 9.5
2005-02-23 08:28:09 51°20.056 2°58.989 68.8 12.3 65 9.4
2005-02-23 08:28:13 51°20.061 2°59.009 68.7 12.4 65 9.6
2005-02-23 08:28:19 51°20.07 2°59.039 68.7 12.4 66 9.6
2005-02-23 08:28:25 51°20.078 2°59.065 67.6 12.4 66 9.6
2005-02-23 08:28:29 51°20.084 2°59.088 67.4 12.4 66 9.4
2005-02-23 08:28:34 51°20.091 2°59.112 67.5 12.3 66 9.4
2005-02-23 08:28:39 51°20.097 2°59.135 67.5 12.2 65 9.4
2005-02-23 08:28:43 51°20.103 2°59.155 68.5 12.4 65 9.5
2005-02-23 08:28:49 51°20.112 2°59.188 68.2 12.4 65 9.5
2005-02-23 08:28:55 51°20.12 2°59.215 68.3 12.4 66 9.6
2005-02-23 08:28:59 51°20.126 2°59.237 68.1 12.2 66 9.6
2005-02-23 08:29:05 51°20.133 2°59.265 68.3 12.2 66 9.4
2005-02-23 08:29:09 51°20.139 2°59.286 69.2 12.3 64 9.5
2005-02-23 08:29:14 51°20.147 2°59.312 67.3 12.3 64 9.3
2005-02-23 08:29:19 51°20.153 2°59.334 67.7 12.2 66 9.3
2005-02-23 08:29:24 51°20.16 2°59.361 68.2 12.2 67 9.1
2005-02-23 08:29:29 51°20.167 2°59.386 68.6 12.2 67 9.1
2005-02-23 08:29:34 51°20.174 2°59.408 67.8 12.4 64 9.2
2005-02-23 08:29:39 51°20.181 2°59.432 67.7 12.4 66 9.4
2005-02-23 08:29:45 51°20.189 2°59.463 67.9 12.4 65 9.4
2005-02-23 08:29:50 51°20.196 2°59.488 67.7 12.2 65 9.6
2005-02-23 08:29:54 51°20.201 2°59.508 68.9 12.2 66 9.4
2005-02-23 08:30:00 51°20.21 2°59.538 69.3 12.2 66 9.4
2005-02-23 08:30:04 51°20.216 2°59.558 68.2 12.5 66 9.6
2005-02-23 08:30:09 51°20.223 2°59.586 68.4 12.5 66 9.7
2005-02-23 08:30:15 51°20.231 2°59.613 68.2 12.5 66 9.6
2005-02-23 08:30:19 51°20.236 2°59.632 68.4 12.4 68 9.7
2005-02-23 08:30:24 51°20.244 2°59.66 68.5 12.3 67 9.7
2005-02-23 08:30:29 51°20.25 2°59.685 68.8 12.4 68 9.8
2005-02-23 08:30:33 51°20.256 2°59.706 69 12.4 67 9.4
2005-02-23 08:30:38 51°20.263 2°59.73 68.3 12.4 65 9.4
2005-02-23 08:30:44 51°20.271 2°59.761 67.6 12.3 65 9.3
2005-02-23 08:30:49 51°20.278 2°59.785 69.2 12.3 65 9.4
2005-02-23 08:30:55 51°20.286 2°59.814 68 12.3 67 9.3
2005-02-23 08:30:59 51°20.292 2°59.833 68.4 12.3 67 9.5
2005-02-23 08:31:05 51°20.3 2°59.862 68.3 12.3 69 9.6
2005-02-23 08:31:09 51°20.306 2°59.885 68.3 12.2 66 9.4
2005-02-23 08:31:13 51°20.312 2°59.904 67.9 12.4 67 9.4
2005-02-23 08:31:19 51°20.319 2°59.932 68.8 12.3 66 9.4
2005-02-23 08:31:24 51°20.326 2°59.959 68.9 12.3 64 9.4
2005-02-23 08:31:29 51°20.333 2°59.984 68.1 12.3 64 9.3
2005-02-23 08:31:35 51°20.341 3°0.012 69.4 12.3 67 9.3
2005-02-23 08:31:39 51°20.346 3°0.032 68.3 12.2 65 9.5
2005-02-23 08:31:45 51°20.354 3°0.06 68.1 12.2 67 9.5
2005-02-23 08:31:50 51°20.362 3°0.086 68.4 12.3 64 9.4
2005-02-23 08:31:54 51°20.368 3°0.105 68.1 12.5 67 9.5
2005-02-23 08:31:59 51°20.375 3°0.13 67.7 12.3 64 9.3
2005-02-23 08:32:05 51°20.384 3°0.16 68.9 12.1 65 9.4
2005-02-23 08:32:10 51°20.39 3°0.185 68.5 12.1 65 9.5
2005-02-23 08:32:15 51°20.397 3°0.21 68.1 12.1 65 9.5
2005-02-23 08:32:19 51°20.403 3°0.231 68.2 12.3 66 9.5
2005-02-23 08:32:24 51°20.41 3°0.258 68 12.2 68 9.4
2005-02-23 08:32:30 51°20.417 3°0.285 69.4 12.4 68 9.5
2005-02-23 08:32:35 51°20.424 3°0.31 68.2 12.4 66 9.6
2005-02-23 08:32:39 51°20.43 3°0.33 68.1 12.3 67 9.5
2005-02-23 08:32:44 51°20.437 3°0.358 68.9 12.4 66 9.5
2005-02-23 08:32:49 51°20.445 3°0.383 68.1 12.4 66 9.4
2005-02-23 08:32:55 51°20.452 3°0.41 67.7 12.4 66 9.6
2005-02-23 08:32:59 51°20.459 3°0.429 67.5 12.2 65 9.6
2005-02-23 08:33:04 51°20.466 3°0.457 67.8 12.1 64 9.5
2005-02-23 08:33:10 51°20.474 3°0.483 67.9 12.5 67 9.5
2005-02-23 08:33:15 51°20.48 3°0.508 66.7 12.4 63 9.5
2005-02-23 08:33:20 51°20.487 3°0.533 68 12.2 65 9.4
2005-02-23 08:33:24 51°20.493 3°0.556 68.6 12.3 66 9.4
2005-02-23 08:33:29 51°20.501 3°0.58 68.9 12.3 66 9.4
2005-02-23 08:33:35 51°20.507 3°0.608 68.5 12.3 66 9.4
2005-02-23 08:33:39 51°20.514 3°0.628 69.1 12.3 66 9.4
2005-02-23 08:33:45 51°20.522 3°0.658 68.4 12.2 64 9.3
2005-02-23 08:33:49 51°20.528 3°0.677 69.1 12.2 64 9.4
2005-02-23 08:33:54 51°20.535 3°0.704 68.2 12.2 66 9.4
2005-02-23 08:33:59 51°20.541 3°0.726 68.4 12.2 66 9.3
2005-02-23 08:34:05 51°20.55 3°0.756 67.7 12.3 67 9.3
2005-02-23 08:34:10 51°20.556 3°0.781 68.1 12.1 64 9.4
2005-02-23 08:34:13 51°20.561 3°0.798 68.2 12.3 65 9.5
2005-02-23 08:34:18 51°20.568 3°0.823 67.5 12.2 65 9.3
2005-02-23 08:34:25 51°20.577 3°0.856 69.2 12.3 71 9.3
2005-02-23 08:34:29 51°20.582 3°0.878 68.5 12.2 63 9.4
2005-02-23 08:34:35 51°20.59 3°0.904 68.6 12.1 66 9.4
2005-02-23 08:34:39 51°20.595 3°0.925 68.9 12.1 66 9.3
2005-02-23 08:34:42 51°20.6 3°0.942 68 12.3 67 9.6
2005-02-23 08:34:49 51°20.61 3°0.973 68.2 12.2 65 9.5
2005-02-23 08:34:55 51°20.618 3°1.003 68.1 12.2 65 9.5
2005-02-23 08:34:59 51°20.624 3°1.026 67.6 12.2 65 9.3
2005-02-23 08:35:05 51°20.632 3°1.053 68.3 12.1 67 9.5
2005-02-23 08:35:09 51°20.638 3°1.075 68.1 12.3 63 9.4
2005-02-23 08:35:15 51°20.646 3°1.101 68.2 12.2 66 9.6
2005-02-23 08:35:19 51°20.651 3°1.121 68 12.3 66 9.3
2005-02-23 08:35:25 51°20.66 3°1.151 68.3 12.2 66 9.5
2005-02-23 08:35:29 51°20.666 3°1.174 68.1 12.2 66 9.6
2005-02-23 08:35:33 51°20.671 3°1.194 68.1 12.2 66 9.6
2005-02-23 08:35:39 51°20.679 3°1.221 67.6 12.2 65 9.7
2005-02-23 08:35:45 51°20.688 3°1.25 68.2 12.4 67 9.7
2005-02-23 08:35:49 51°20.694 3°1.273 67.6 12.3 64 9.9
2005-02-23 08:35:54 51°20.7 3°1.297 68.5 12.3 67 9.9
2005-02-23 08:35:59 51°20.707 3°1.319 68.2 12.2 66 9.5
2005-02-23 08:36:04 51°20.714 3°1.346 67.8 12.1 63 9.8
2005-02-23 08:36:09 51°20.721 3°1.371 68.9 12.1 63 9.3
2005-02-23 08:36:14 51°20.727 3°1.392 68.6 12.3 67 9.3
2005-02-23 08:36:19 51°20.734 3°1.418 69 12.4 67 9.4
2005-02-23 08:36:25 51°20.742 3°1.448 68.2 12.3 65 9.6
2005-02-23 08:36:30 51°20.749 3°1.472 68.2 12.2 67 9.8
2005-02-23 08:36:35 51°20.757 3°1.497 68.5 12.1 66 9.7
2005-02-23 08:36:39 51°20.761 3°1.517 67.7 12.2 64 9.6
2005-02-23 08:36:44 51°20.77 3°1.544 68.2 12.3 65 9.8
2005-02-23 08:36:49 51°20.776 3°1.569 68.2 12.4 65 9.7
2005-02-23 08:36:54 51°20.783 3°1.593 68.5 12.3 68 9.5
2005-02-23 08:36:59 51°20.79 3°1.615 68.9 12.4 68 9.7
2005-02-23 08:37:04 51°20.797 3°1.643 67.8 12.2 65 9.4
2005-02-23 08:37:09 51°20.804 3°1.668 68.8 12.2 65 9.6
2005-02-23 08:37:15 51°20.811 3°1.696 67.9 12.2 65 9.6
2005-02-23 08:37:19 51°20.818 3°1.717 68.8 12.2 65 9.7
2005-02-23 08:37:24 51°20.824 3°1.743 68 12.1 67 9.5
2005-02-23 08:37:29 51°20.831 3°1.767 68.6 12.3 70 9.3
2005-02-23 08:37:34 51°20.837 3°1.792 67.8 12.3 70 9.5
2005-02-23 08:37:39 51°20.844 3°1.814 68.5 12.3 70 9.5
2005-02-23 08:37:44 51°20.851 3°1.841 67.8 12.3 70 9.5
2005-02-23 08:37:49 51°20.859 3°1.866 68.2 12.3 67 9.5
2005-02-23 08:37:53 51°20.864 3°1.885 68 12.2 64 9.6
2005-02-23 08:37:59 51°20.873 3°1.915 68.1 12.2 66 9.7
2005-02-23 08:38:05 51°20.88 3°1.943 68.7 12.2 67 9.8
2005-02-23 08:38:09 51°20.885 3°1.965 69.1 12.2 67 9.9
2005-02-23 08:38:14 51°20.891 3°1.991 69.9 12.4 70 9.6
2005-02-23 08:38:19 51°20.897 3°2.014 70.1 12.4 68 9.5
2005-02-23 08:38:25 51°20.905 3°2.044 70.4 12.4 70 9.4
2005-02-23 08:38:30 51°20.911 3°2.07 70.6 12.3 66 9.4
2005-02-23 08:38:34 51°20.917 3°2.092 70.4 12.3 68 9.5
2005-02-23 08:38:39 51°20.922 3°2.115 70.7 12.3 68 9.6
2005-02-23 08:38:45 51°20.929 3°2.146 70.3 12.3 68 9.7
2005-02-23 08:38:49 51°20.935 3°2.168 70.8 12.3 70 9.7
2005-02-23 08:38:54 51°20.941 3°2.191 70.5 12.3 68 9.9
2005-02-23 08:38:59 51°20.948 3°2.22 71.2 12.3 68 9.9
2005-02-23 08:39:04 51°20.955 3°2.245 71.1 12.4 68 9.8
2005-02-23 08:39:10 51°20.961 3°2.272 69.7 12.4 68 9.8
2005-02-23 08:39:14 51°20.967 3°2.294 70.6 12.2 68 10
2005-02-23 08:39:19 51°20.972 3°2.318 70.3 12.2 71 9.6
2005-02-23 08:39:24 51°20.979 3°2.345 70.7 12.2 71 9.5
2005-02-23 08:39:29 51°20.985 3°2.37 70.9 12.1 71 9.7
2005-02-23 08:39:35 51°20.99 3°2.398 70.6 12.1 68 9.6
2005-02-23 08:39:39 51°20.997 3°2.417 71.8 12.3 69 9.5
2005-02-23 08:39:45 51°21.003 3°2.448 71.3 12.3 69 9.6
2005-02-23 08:39:49 51°21.009 3°2.47 70.8 12.1 69 9.7
2005-02-23 08:39:55 51°21.016 3°2.498 70.4 12.1 69 9.9
2005-02-23 08:39:59 51°21.021 3°2.518 71.1 12.3 68 9.7
2005-02-23 08:40:05 51°21.028 3°2.549 69.9 12.3 68 9.8
2005-02-23 08:40:09 51°21.034 3°2.571 70.4 12.1 69 9.8
2005-02-23 08:40:15 51°21.04 3°2.599 70.6 12.1 69 9.9
2005-02-23 08:40:20 51°21.047 3°2.624 70.7 12.3 69 9.9
2005-02-23 08:40:25 51°21.053 3°2.649 70.4 12.3 68 10.1
2005-02-23 08:40:29 51°21.058 3°2.672 69.8 12.1 69 9.8
2005-02-23 08:40:35 51°21.065 3°2.699 70.6 12.1 66 9.8
2005-02-23 08:40:40 51°21.072 3°2.724 70.2 12.1 66 9.9
2005-02-23 08:40:44 51°21.077 3°2.747 70 12.4 69 9.9
2005-02-23 08:40:49 51°21.083 3°2.773 69.8 12.4 69 9.7
2005-02-23 08:40:54 51°21.088 3°2.798 71.4 12.1 69 9.6
2005-02-23 08:40:59 51°21.093 3°2.821 72.1 12.1 72 9.5
2005-02-23 08:41:04 51°21.1 3°2.849 73.3 12.1 72 9.5
2005-02-23 08:41:09 51°21.105 3°2.875 73 12.1 72 9.6
2005-02-23 08:41:15 51°21.111 3°2.903 72.9 12.2 72 9.9
2005-02-23 08:41:19 51°21.114 3°2.924 73.3 12.2 72 9.8
2005-02-23 08:41:24 51°21.12 3°2.953 73.4 12.4 73 9.7
2005-02-23 08:41:29 51°21.125 3°2.977 74 12.5 72 9.8
2005-02-23 08:41:34 51°21.131 3°3.004 72.8 12.2 73 10
2005-02-23 08:41:39 51°21.136 3°3.03 73.3 12 74 9.9
2005-02-23 08:41:45 51°21.142 3°3.058 73.8 12 74 9.9
2005-02-23 08:41:49 51°21.147 3°3.081 74.2 12.5 71 10
2005-02-23 08:41:54 51°21.151 3°3.108 72.4 12.3 69 9.9
2005-02-23 08:41:59 51°21.157 3°3.13 73.6 12.3 69 10
2005-02-23 08:42:04 51°21.162 3°3.159 72.8 12.2 75 10
2005-02-23 08:42:09 51°21.168 3°3.185 74 12.3 74 9.9
2005-02-23 08:42:13 51°21.172 3°3.205 73 12.3 71 9.8
2005-02-23 08:42:19 51°21.178 3°3.235 73.8 12.4 73 10.1
2005-02-23 08:42:25 51°21.184 3°3.265 73.8 12.4 73 9.9
2005-02-23 08:42:29 51°21.189 3°3.288 74 12.4 73 10
2005-02-23 08:42:34 51°21.194 3°3.312 74 12.3 73 10.1
2005-02-23 08:42:40 51°21.2 3°3.342 72.9 12.3 73 10
2005-02-23 08:42:44 51°21.206 3°3.365 72.3 12.4 71 10
2005-02-23 08:42:49 51°21.212 3°3.39 71.8 12.4 71 10.1
2005-02-23 08:42:54 51°21.218 3°3.416 70.7 12.1 70 10
2005-02-23 08:42:59 51°21.223 3°3.439 71.6 12.2 69 10
2005-02-23 08:43:05 51°21.23 3°3.47 71.7 12.2 69 9.8
2005-02-23 08:43:09 51°21.235 3°3.493 71.1 12.2 69 9.8
2005-02-23 08:43:14 51°21.241 3°3.515 71.5 12.2 69 10
2005-02-23 08:43:19 51°21.246 3°3.541 71 12.2 67 9.9
2005-02-23 08:43:24 51°21.254 3°3.569 71.5 12.4 72 9.9
2005-02-23 08:43:29 51°21.26 3°3.594 69.6 12.3 66 9.9
2005-02-23 08:43:34 51°21.266 3°3.619 70.5 12.1 68 10.1
2005-02-23 08:43:39 51°21.272 3°3.646 71 12.2 71 10
2005-02-23 08:43:44 51°21.279 3°3.67 71.8 12.3 65 10.1
2005-02-23 08:43:49 51°21.284 3°3.696 71.1 12.5 74 10.2
2005-02-23 08:43:55 51°21.29 3°3.724 71 12.3 65 10.1
2005-02-23 08:43:59 51°21.295 3°3.745 71.1 12.3 65 10
2005-02-23 08:44:05 51°21.303 3°3.776 71.4 12.4 68 10.1
2005-02-23 08:44:09 51°21.308 3°3.798 71.1 12.4 68 10.2
2005-02-23 08:44:15 51°21.314 3°3.827 70.4 12.2 69 10
2005-02-23 08:44:19 51°21.319 3°3.847 71.3 12.3 73 10
2005-02-23 08:44:24 51°21.325 3°3.875 71.7 12.5 70 9.9
2005-02-23 08:44:29 51°21.332 3°3.898 71.8 12.5 71 10.1
2005-02-23 08:44:33 51°21.336 3°3.921 70.4 12.3 67 10
2005-02-23 08:44:39 51°21.344 3°3.952 71.9 12.3 67 10.2
2005-02-23 08:44:45 51°21.35 3°3.98 71.5 12.3 68 10.1
2005-02-23 08:44:49 51°21.355 3°4.003 71.8 12.4 70 10.1
2005-02-23 08:44:53 51°21.36 3°4.023 71.9 12.4 70 10.2
2005-02-23 08:44:59 51°21.366 3°4.052 71.3 12.4 70 10.1
2005-02-23 08:45:05 51°21.374 3°4.082 71.8 12.4 72 10.2
2005-02-23 08:45:09 51°21.378 3°4.106 70.6 12.4 72 10.2
2005-02-23 08:45:14 51°21.385 3°4.131 72.1 12.4 72 10.1
2005-02-23 08:45:19 51°21.39 3°4.154 70.3 12.4 72 10.3
2005-02-23 08:45:25 51°21.397 3°4.185 71.3 12.2 68 10.2
2005-02-23 08:45:30 51°21.403 3°4.209 71.5 12.2 68 10.3
2005-02-23 08:45:35 51°21.41 3°4.235 70.3 12.2 68 10.3
2005-02-23 08:45:39 51°21.415 3°4.256 70.1 12.2 71 10.3
2005-02-23 08:45:44 51°21.421 3°4.284 70.8 12.2 69 10.3
2005-02-23 08:45:49 51°21.426 3°4.307 71.1 12.4 68 10.2
2005-02-23 08:45:55 51°21.434 3°4.338 71.1 12.4 69 10.1
2005-02-23 08:45:59 51°21.439 3°4.358 71.1 12.4 69 10.2
2005-02-23 08:46:05 51°21.446 3°4.39 70.6 12.3 71 10
2005-02-23 08:46:10 51°21.452 3°4.415 71.7 12.5 69 10.2
2005-02-23 08:46:14 51°21.457 3°4.438 71.7 12.5 70 10.1
2005-02-23 08:46:19 51°21.463 3°4.464 71.6 12.2 69 10.2
2005-02-23 08:46:24 51°21.469 3°4.489 71.8 12.4 71 10.3
2005-02-23 08:46:29 51°21.474 3°4.515 71.2 12.4 68 10.2
2005-02-23 08:46:35 51°21.482 3°4.543 71.1 12.4 70 10.2
2005-02-23 08:46:40 51°21.488 3°4.569 71.1 12.4 70 10.3
2005-02-23 08:46:44 51°21.493 3°4.592 71.1 12.3 70 10.3
2005-02-23 08:46:49 51°21.498 3°4.616 71.4 12.3 68 10.1
2005-02-23 08:46:54 51°21.505 3°4.643 71.9 12.3 70 10.2
2005-02-23 08:46:59 51°21.509 3°4.667 71.2 12.3 70 10.3
2005-02-23 08:47:04 51°21.517 3°4.695 71.9 12.5 67 10.2
2005-02-23 08:47:09 51°21.522 3°4.719 71.3 12.5 67 10.2
2005-02-23 08:47:14 51°21.529 3°4.747 71.2 12.5 71 10.2
2005-02-23 08:47:19 51°21.534 3°4.77 70.7 12.4 69 10.3
2005-02-23 08:47:24 51°21.541 3°4.798 71.1 12.3 69 10.4
2005-02-23 08:47:29 51°21.547 3°4.824 70.8 12.3 69 10.3
2005-02-23 08:47:34 51°21.553 3°4.849 70.5 12.5 70 10.4
2005-02-23 08:47:39 51°21.558 3°4.872 71.2 12.3 69 10.5
2005-02-23 08:47:44 51°21.564 3°4.9 71.5 12.3 70 10.3
2005-02-23 08:47:49 51°21.571 3°4.926 71.6 12.3 70 10.2
2005-02-23 08:47:54 51°21.576 3°4.95 71 12.4 68 10.3
2005-02-23 08:47:59 51°21.582 3°4.974 71.1 12.2 69 10.3
2005-02-23 08:48:04 51°21.588 3°5.003 71.2 12.2 70 10.2
2005-02-23 08:48:09 51°21.594 3°5.029 71.8 12.5 69 10.2
2005-02-23 08:48:15 51°21.6 3°5.057 71.5 12.5 69 10.3
2005-02-23 08:48:19 51°21.606 3°5.077 71.1 12.3 67 10.3
2005-02-23 08:48:25 51°21.612 3°5.109 71.7 12.3 74 10.3
2005-02-23 08:48:29 51°21.618 3°5.132 71.7 12.5 70 10.5
2005-02-23 08:48:34 51°21.623 3°5.158 71 12.5 72 10.4
2005-02-23 08:48:39 51°21.629 3°5.181 71.5 12.4 71 10.3
2005-02-23 08:48:45 51°21.636 3°5.212 71.3 12.4 71 10.4
2005-02-23 08:48:49 51°21.64 3°5.233 71.7 12.4 67 10.4
2005-02-23 08:48:54 51°21.647 3°5.261 71 12.4 70 10.3
2005-02-23 08:48:59 51°21.653 3°5.284 71 12.5 69 10.5
2005-02-23 08:49:05 51°21.659 3°5.315 70.4 12.3 68 10.4
2005-02-23 08:49:09 51°21.665 3°5.338 71.4 12.3 68 10.3
2005-02-23 08:49:15 51°21.671 3°5.367 71.7 12.5 71 10.4
2005-02-23 08:49:19 51°21.676 3°5.387 71.8 12.5 71 10.4
2005-02-23 08:49:24 51°21.683 3°5.415 70.6 12.5 68 10.5
2005-02-23 08:49:29 51°21.688 3°5.441 70.9 12.2 68 10.5
2005-02-23 08:49:34 51°21.695 3°5.467 71.7 12.5 70 10.7
2005-02-23 08:49:39 51°21.699 3°5.491 70.7 12.5 67 10.4
2005-02-23 08:49:44 51°21.706 3°5.519 72.5 12.5 72 10.5
2005-02-23 08:49:49 51°21.71 3°5.546 73.5 12.5 72 10.6
2005-02-23 08:49:54 51°21.715 3°5.572 74.1 12.5 70 10.6
2005-02-23 08:49:59 51°21.719 3°5.597 74.5 12.5 70 10.5
2005-02-23 08:50:05 51°21.724 3°5.629 75.9 12.6 73 10.3
2005-02-23 08:50:09 51°21.728 3°5.653 74.6 12.5 74 10.3
2005-02-23 08:50:15 51°21.734 3°5.681 76.3 12.5 74 10.4
2005-02-23 08:50:19 51°21.738 3°5.706 75.5 12.4 73 10.4
2005-02-23 08:50:25 51°21.743 3°5.736 76.2 12.5 77 10.5
2005-02-23 08:50:29 51°21.748 3°5.759 74.8 12.5 74 10.7
2005-02-23 08:50:35 51°21.752 3°5.789 74.7 12.5 74 10.5
2005-02-23 08:50:39 51°21.756 3°5.81 75.9 12.3 74 10.5
2005-02-23 08:50:44 51°21.761 3°5.839 75.8 12.6 77 10.6
2005-02-23 08:50:49 51°21.765 3°5.866 75.4 12.5 73 10.5
2005-02-23 08:50:54 51°21.77 3°5.892 75.5 12.4 75 10.4
2005-02-23 08:50:59 51°21.774 3°5.916 75 12.4 72 10.3
2005-02-23 08:51:05 51°21.78 3°5.949 76.2 12.5 75 10.2
2005-02-23 08:51:09 51°21.783 3°5.973 76.9 12.5 77 10.3
2005-02-23 08:51:13 51°21.786 3°5.994 78.1 12.3 77 10.5
2005-02-23 08:51:20 51°21.79 3°6.029 79.8 12.3 79 10.6